Time;durP1;ratioP1;P1;durP2;ratioP2;P2;SDS_P1;SDS_P2;PMS_P1;PMS_P2;Temp;Humidity;BMP_temperature;BMP_pressure;BME280_temperature;BME280_humidity;BME280_pressure;Samples;Min_cycle;Max_cycle;Signal;HPM_P1;HPM_P2
2024/01/27 00:02:05;;;;;;;3.67;2.20;;;;;;;;;;5061148;28;20432;-68
2024/01/27 00:04:32;;;;;;;4.43;2.60;;;;;;;;;;5059233;28;20281;-68
2024/01/27 00:07:00;;;;;;;5.53;3.03;;;;;;;;;;5054239;28;20309;-68
2024/01/27 00:09:27;;;;;;;7.73;3.20;;;;;;;;;;5062458;28;20203;-68
2024/01/27 00:11:54;;;;;;;6.93;3.50;;;;;;;;;;5062917;28;20286;-68
2024/01/27 00:14:21;;;;;;;9.73;4.50;;;;;;;;;;5060416;28;20281;-68
2024/01/27 00:16:48;;;;;;;7.47;4.57;;;;;;;;;;5057423;28;20226;-68
2024/01/27 00:19:15;;;;;;;9.70;3.67;;;;;;;;;;5064388;28;20302;-67
2024/01/27 00:21:43;;;;;;;6.33;2.80;;;;;;;;;;5059638;28;20199;-68
2024/01/27 00:24:11;;;;;;;10.63;3.00;;;;;;;;;;5061265;28;20298;-68
2024/01/27 00:26:38;;;;;;;7.23;2.30;;;;;;;;;;5061242;28;20297;-68
2024/01/27 00:29:05;;;;;;;7.13;2.43;;;;;;;;;;5056531;28;20298;-69
2024/01/27 00:31:33;;;;;;;6.43;2.40;;;;;;;;;;5059631;28;20203;-68
2024/01/27 00:34:00;;;;;;;4.70;2.17;;;;;;;;;;5060748;28;20223;-63
2024/01/27 00:36:27;;;;;;;7.00;1.97;;;;;;;;;;5060790;28;20285;-63
2024/01/27 00:38:54;;;;;;;4.17;1.73;;;;;;;;;;5060991;28;22093;-62
2024/01/27 00:41:22;;;;;;;6.80;1.83;;;;;;;;;;5057552;28;20293;-63
2024/01/27 00:43:50;;;;;;;5.60;1.67;;;;;;;;;;5066315;28;20226;-63
2024/01/27 00:46:17;;;;;;;4.30;1.63;;;;;;;;;;5059822;28;20207;-63
2024/01/27 00:48:44;;;;;;;6.17;2.23;;;;;;;;;;5062868;28;20211;-63
2024/01/27 00:51:11;;;;;;;5.50;2.83;;;;;;;;;;5063416;28;20210;-63
2024/01/27 00:53:38;;;;;;;6.83;2.70;;;;;;;;;;5059851;28;20203;-62
2024/01/27 00:56:06;;;;;;;6.60;2.10;;;;;;;;;;5065046;28;20199;-64
2024/01/27 00:58:34;;;;;;;4.83;2.33;;;;;;;;;;5065065;28;20191;-63
2024/01/27 01:01:02;;;;;;;4.83;1.83;;;;;;;;;;5057130;28;20227;-64
2024/01/27 01:03:29;;;;;;;5.23;2.03;;;;;;;;;;5069606;28;20222;-63
2024/01/27 01:05:56;;;;;;;4.80;1.60;;;;;;;;;;5060422;28;20199;-62
2024/01/27 01:08:23;;;;;;;5.83;2.10;;;;;;;;;;5060811;28;20313;-63
2024/01/27 01:10:50;;;;;;;7.50;2.07;;;;;;;;;;5062398;28;20207;-62
2024/01/27 01:13:17;;;;;;;5.40;1.70;;;;;;;;;;5064716;28;20245;-63
2024/01/27 01:15:46;;;;;;;3.70;1.50;;;;;;;;;;5061115;28;20286;-63
2024/01/27 01:18:13;;;;;;;5.30;1.77;;;;;;;;;;5063971;28;20206;-63
2024/01/27 01:20:40;;;;;;;5.47;1.73;;;;;;;;;;5068663;28;20299;-62
2024/01/27 01:23:08;;;;;;;5.83;1.70;;;;;;;;;;5065256;28;20351;-63
2024/01/27 01:25:35;;;;;;;7.33;1.90;;;;;;;;;;5064497;28;20683;-63
2024/01/27 01:28:03;;;;;;;4.13;1.70;;;;;;;;;;5069533;28;20214;-63
2024/01/27 01:30:30;;;;;;;4.47;1.60;;;;;;;;;;5061942;28;20214;-63
2024/01/27 01:32:58;;;;;;;4.33;1.77;;;;;;;;;;5067963;28;20197;-63
2024/01/27 01:35:26;;;;;;;5.40;2.23;;;;;;;;;;5071854;28;20202;-62
2024/01/27 01:37:53;;;;;;;7.67;2.13;;;;;;;;;;5063412;28;20210;-63
2024/01/27 01:40:20;;;;;;;4.70;2.23;;;;;;;;;;5066868;28;20951;-63
2024/01/27 01:42:52;;;;;;;5.23;1.60;;;;;;;;;;5059948;28;20297;-68
2024/01/27 01:45:20;;;;;;;5.13;1.87;;;;;;;;;;5060094;28;20203;-67
2024/01/27 01:47:47;;;;;;;5.37;1.73;;;;;;;;;;5058294;28;20294;-69
2024/01/27 01:50:16;;;;;;;6.43;2.00;;;;;;;;;;5060858;28;20293;-68
2024/01/27 01:52:43;;;;;;;3.67;1.80;;;;;;;;;;5059187;28;20198;-68
2024/01/27 01:55:10;;;;;;;4.20;1.73;;;;;;;;;;5061786;28;20195;-67
2024/01/27 01:57:37;;;;;;;3.40;1.80;;;;;;;;;;5063579;28;20206;-68
2024/01/27 02:00:06;;;;;;;7.17;1.87;;;;;;;;;;5063193;28;20287;-68
2024/01/27 02:02:33;;;;;;;8.20;2.07;;;;;;;;;;5071726;28;20202;-69
2024/01/27 02:05:01;;;;;;;7.30;2.13;;;;;;;;;;5064968;28;20207;-68
2024/01/27 02:07:30;;;;;;;6.43;2.10;;;;;;;;;;5065400;28;20206;-68
2024/01/27 02:09:59;;;;;;;6.60;2.17;;;;;;;;;;5068730;28;20200;-68
2024/01/27 02:12:26;;;;;;;7.43;1.90;;;;;;;;;;5063438;28;20230;-68
2024/01/27 02:14:53;;;;;;;7.20;2.00;;;;;;;;;;5068151;28;20286;-68
2024/01/27 02:17:20;;;;;;;5.97;2.03;;;;;;;;;;5067549;28;21361;-67
2024/01/27 02:19:47;;;;;;;4.50;1.90;;;;;;;;;;5065391;28;20206;-68
2024/01/27 02:22:14;;;;;;;5.80;1.87;;;;;;;;;;5063846;28;20219;-67
2024/01/27 02:24:43;;;;;;;5.00;1.53;;;;;;;;;;5061576;28;20270;-68
2024/01/27 02:27:10;;;;;;;6.90;1.90;;;;;;;;;;5068738;28;20204;-68
2024/01/27 02:29:37;;;;;;;4.47;1.77;;;;;;;;;;5065159;28;20264;-68
2024/01/27 02:32:05;;;;;;;3.33;2.13;;;;;;;;;;5063833;28;20203;-68
2024/01/27 02:34:32;;;;;;;6.10;1.97;;;;;;;;;;5061580;28;20203;-68
2024/01/27 02:36:59;;;;;;;7.07;1.80;;;;;;;;;;5060476;28;20294;-68
2024/01/27 02:39:26;;;;;;;8.10;2.00;;;;;;;;;;5065308;28;20314;-68
2024/01/27 02:41:54;;;;;;;4.13;1.60;;;;;;;;;;5070067;28;20206;-68
2024/01/27 02:44:22;;;;;;;8.73;1.90;;;;;;;;;;5062862;28;20212;-67
2024/01/27 02:46:49;;;;;;;5.13;1.83;;;;;;;;;;5062419;28;20282;-68
2024/01/27 02:49:16;;;;;;;6.77;2.10;;;;;;;;;;5068364;28;20299;-68
2024/01/27 02:51:44;;;;;;;4.07;1.63;;;;;;;;;;5067207;28;20207;-68
2024/01/27 02:54:11;;;;;;;9.60;1.97;;;;;;;;;;5066566;28;20202;-67
2024/01/27 02:56:38;;;;;;;5.30;1.80;;;;;;;;;;5062873;28;20212;-67
2024/01/27 02:59:06;;;;;;;5.00;1.80;;;;;;;;;;5066366;28;20199;-68
2024/01/27 03:01:33;;;;;;;9.80;2.60;;;;;;;;;;5063044;28;20322;-68
2024/01/27 03:04:01;;;;;;;6.40;2.37;;;;;;;;;;5061505;28;20208;-68
2024/01/27 03:06:28;;;;;;;6.73;2.40;;;;;;;;;;5058461;28;20217;-68
2024/01/27 03:08:55;;;;;;;4.63;2.17;;;;;;;;;;5065858;28;20317;-70
2024/01/27 03:11:22;;;;;;;4.27;2.17;;;;;;;;;;5057802;28;20203;-68
2024/01/27 03:13:49;;;;;;;5.37;2.20;;;;;;;;;;5061709;28;20226;-68
2024/01/27 03:16:19;;;;;;;5.37;2.30;;;;;;;;;;5058468;28;20313;-67
2024/01/27 03:18:46;;;;;;;5.57;2.30;;;;;;;;;;5059648;28;20249;-67
2024/01/27 03:21:14;;;;;;;4.90;2.20;;;;;;;;;;5063576;28;20202;-68
2024/01/27 03:23:41;;;;;;;5.93;2.10;;;;;;;;;;5061670;28;20286;-68
2024/01/27 03:26:08;;;;;;;5.00;1.87;;;;;;;;;;5060397;28;20290;-67
2024/01/27 03:28:35;;;;;;;2.90;2.00;;;;;;;;;;5060924;28;20210;-63
2024/01/27 03:31:02;;;;;;;5.87;2.17;;;;;;;;;;5057767;28;20201;-68
2024/01/27 03:33:31;;;;;;;3.83;1.80;;;;;;;;;;5060615;28;20410;-68
2024/01/27 03:35:58;;;;;;;6.43;2.57;;;;;;;;;;5056601;28;20195;-68
2024/01/27 03:38:25;;;;;;;11.93;6.73;;;;;;;;;;5066481;28;20286;-68
2024/01/27 03:40:52;;;;;;;12.23;5.83;;;;;;;;;;5068390;28;20254;-62
2024/01/27 03:43:19;;;;;;;9.40;3.90;;;;;;;;;;5061395;28;20204;-62
2024/01/27 03:45:46;;;;;;;8.87;2.80;;;;;;;;;;5061716;28;20210;-62
2024/01/27 03:48:13;;;;;;;7.23;2.60;;;;;;;;;;5062832;28;20242;-62
2024/01/27 03:50:42;;;;;;;4.60;2.10;;;;;;;;;;5067196;28;20198;-68
2024/01/27 03:53:09;;;;;;;7.17;2.63;;;;;;;;;;5063037;28;20326;-68
2024/01/27 03:55:36;;;;;;;4.10;2.00;;;;;;;;;;5066662;28;20207;-68
2024/01/27 03:58:03;;;;;;;5.63;2.40;;;;;;;;;;5062209;28;20322;-68
2024/01/27 04:00:32;;;;;;;6.40;2.00;;;;;;;;;;5067821;28;20231;-68
2024/01/27 04:02:59;;;;;;;9.87;2.93;;;;;;;;;;5058647;28;20298;-67
2024/01/27 04:05:27;;;;;;;7.50;2.87;;;;;;;;;;5063435;28;20202;-68
2024/01/27 04:07:55;;;;;;;5.60;2.33;;;;;;;;;;5059036;28;20206;-68
2024/01/27 04:10:23;;;;;;;6.80;2.73;;;;;;;;;;5067678;28;20285;-63
2024/01/27 04:12:50;;;;;;;6.90;2.63;;;;;;;;;;5068876;28;20206;-62
2024/01/27 04:15:17;;;;;;;6.53;2.13;;;;;;;;;;5059662;28;20213;-63
2024/01/27 04:17:44;;;;;;;7.00;2.30;;;;;;;;;;5055341;28;20298;-63
2024/01/27 04:20:12;;;;;;;6.60;1.80;;;;;;;;;;5064939;28;20292;-62
2024/01/27 04:22:39;;;;;;;4.93;1.93;;;;;;;;;;5058103;28;20196;-63
2024/01/27 04:25:08;;;;;;;4.50;1.80;;;;;;;;;;5070140;28;20194;-63
2024/01/27 04:27:39;;;;;;;6.60;1.97;;;;;;;;;;5064644;28;20282;-63
2024/01/27 04:30:06;;;;;;;4.90;1.80;;;;;;;;;;5064260;28;20210;-62
2024/01/27 04:32:34;;;;;;;4.07;2.00;;;;;;;;;;5063790;28;20268;-62
2024/01/27 04:35:01;;;;;;;5.17;1.87;;;;;;;;;;5064899;28;20191;-62
2024/01/27 04:37:28;;;;;;;5.53;2.07;;;;;;;;;;5063213;28;20195;-63
2024/01/27 04:39:55;;;;;;;5.97;2.13;;;;;;;;;;5062383;28;20197;-62
2024/01/27 04:42:24;;;;;;;4.90;1.90;;;;;;;;;;5070376;28;20233;-62
2024/01/27 04:44:51;;;;;;;4.23;1.67;;;;;;;;;;5061772;28;20191;-62
2024/01/27 04:47:18;;;;;;;4.20;1.60;;;;;;;;;;5070035;28;20285;-62
2024/01/27 04:49:45;;;;;;;5.07;1.80;;;;;;;;;;5062386;28;20208;-62
2024/01/27 04:52:12;;;;;;;4.80;1.73;;;;;;;;;;5061644;28;20337;-62
2024/01/27 04:54:40;;;;;;;4.73;1.63;;;;;;;;;;5067538;28;20294;-62
2024/01/27 04:57:07;;;;;;;3.23;1.47;;;;;;;;;;5067705;28;20290;-62
2024/01/27 04:59:35;;;;;;;5.43;1.63;;;;;;;;;;5058446;28;20199;-63
2024/01/27 05:02:02;;;;;;;6.07;1.77;;;;;;;;;;5051673;28;20334;-62
2024/01/27 05:04:30;;;;;;;4.83;1.60;;;;;;;;;;5062949;28;20207;-62
2024/01/27 05:06:57;;;;;;;4.63;2.00;;;;;;;;;;5060114;28;20211;-62
2024/01/27 05:09:24;;;;;;;8.13;1.77;;;;;;;;;;5060546;28;20233;-62
2024/01/27 05:11:52;;;;;;;7.97;1.77;;;;;;;;;;5061291;28;20207;-62
2024/01/27 05:14:19;;;;;;;7.47;2.40;;;;;;;;;;5058493;28;20207;-63
2024/01/27 05:16:48;;;;;;;5.23;1.90;;;;;;;;;;5059203;28;20201;-62
2024/01/27 05:19:17;;;;;;;5.23;2.00;;;;;;;;;;5063215;28;20195;-64
2024/01/27 05:21:44;;;;;;;4.47;1.80;;;;;;;;;;5064023;28;20204;-62
2024/01/27 05:24:12;;;;;;;4.23;1.87;;;;;;;;;;5064295;28;20195;-63
2024/01/27 05:26:39;;;;;;;5.30;2.13;;;;;;;;;;5064899;28;20199;-62
2024/01/27 05:29:06;;;;;;;6.97;2.27;;;;;;;;;;5064670;28;20211;-63
2024/01/27 05:31:33;;;;;;;2.80;1.60;;;;;;;;;;5064798;28;20252;-63
2024/01/27 05:34:02;;;;;;;5.13;1.97;;;;;;;;;;5061511;28;20274;-63
2024/01/27 05:36:29;;;;;;;8.40;2.17;;;;;;;;;;5062557;28;20286;-63
2024/01/27 05:38:56;;;;;;;4.07;2.00;;;;;;;;;;5055979;28;20207;-63
2024/01/27 05:41:27;;;;;;;7.20;1.90;;;;;;;;;;5065149;28;20293;-63
2024/01/27 05:43:54;;;;;;;6.07;1.80;;;;;;;;;;5064364;28;20210;-62
2024/01/27 05:46:21;;;;;;;6.30;1.80;;;;;;;;;;5058750;28;20230;-63
2024/01/27 05:48:50;;;;;;;4.53;1.60;;;;;;;;;;5057052;28;20206;-62
2024/01/27 05:51:19;;;;;;;6.33;1.70;;;;;;;;;;5058759;28;20199;-62
2024/01/27 05:53:46;;;;;;;4.23;1.50;;;;;;;;;;5056322;28;20299;-63
2024/01/27 05:56:13;;;;;;;6.67;1.73;;;;;;;;;;5062375;28;20203;-63
2024/01/27 05:58:40;;;;;;;6.03;2.07;;;;;;;;;;5062500;28;20191;-63
2024/01/27 06:01:08;;;;;;;10.70;1.97;;;;;;;;;;5056305;28;20255;-63
2024/01/27 06:03:35;;;;;;;4.10;1.80;;;;;;;;;;5061234;28;20195;-63
2024/01/27 06:06:03;;;;;;;4.70;1.80;;;;;;;;;;5061139;28;20210;-63
2024/01/27 06:08:31;;;;;;;7.57;2.00;;;;;;;;;;5065486;28;20203;-62
2024/01/27 06:10:58;;;;;;;7.60;2.13;;;;;;;;;;5061228;28;20202;-62
2024/01/27 06:13:25;;;;;;;3.63;1.80;;;;;;;;;;5059291;28;20215;-63
2024/01/27 06:15:52;;;;;;;4.67;1.80;;;;;;;;;;5057968;28;20214;-62
2024/01/27 06:18:20;;;;;;;4.50;1.63;;;;;;;;;;5058486;28;20294;-63
2024/01/27 06:20:47;;;;;;;6.53;2.00;;;;;;;;;;5063065;28;20196;-64
2024/01/27 06:23:14;;;;;;;4.40;1.70;;;;;;;;;;5059081;28;20202;-62
2024/01/27 06:25:44;;;;;;;7.43;2.33;;;;;;;;;;5062405;28;20191;-63
2024/01/27 06:28:11;;;;;;;4.20;1.80;;;;;;;;;;5056814;28;20192;-63
2024/01/27 06:30:38;;;;;;;6.30;1.77;;;;;;;;;;5059425;28;20257;-69
2024/01/27 06:33:06;;;;;;;5.37;1.97;;;;;;;;;;5060146;28;20221;-69
2024/01/27 06:35:33;;;;;;;9.33;2.47;;;;;;;;;;5055959;28;20297;-67
2024/01/27 06:38:00;;;;;;;5.30;2.00;;;;;;;;;;5055996;28;20203;-69
2024/01/27 06:40:27;;;;;;;9.03;3.07;;;;;;;;;;5059646;28;20191;-69
2024/01/27 06:42:56;;;;;;;5.17;2.30;;;;;;;;;;5065411;28;20412;-69
2024/01/27 06:45:23;;;;;;;5.60;2.40;;;;;;;;;;5064961;28;20298;-69
2024/01/27 06:47:50;;;;;;;7.67;2.47;;;;;;;;;;5062908;28;20263;-69
2024/01/27 06:50:17;;;;;;;12.40;5.50;;;;;;;;;;5057453;28;20216;-69
2024/01/27 06:52:45;;;;;;;15.27;6.90;;;;;;;;;;5064833;28;20204;-69
2024/01/27 06:55:13;;;;;;;15.47;7.83;;;;;;;;;;5064792;28;20207;-69
2024/01/27 06:57:41;;;;;;;14.77;8.00;;;;;;;;;;5061102;28;20290;-69
2024/01/27 07:00:14;;;;;;;13.23;7.20;;;;;;;;;;5063766;28;20199;-69
2024/01/27 07:02:41;;;;;;;13.90;7.60;;;;;;;;;;5059546;28;20195;-69
2024/01/27 07:05:09;;;;;;;15.63;7.10;;;;;;;;;;5062846;28;20191;-69
2024/01/27 07:07:36;;;;;;;12.73;6.43;;;;;;;;;;5061987;28;20283;-69
2024/01/27 07:10:03;;;;;;;9.53;5.77;;;;;;;;;;5064471;28;20229;-69
2024/01/27 07:12:31;;;;;;;7.00;4.90;;;;;;;;;;5062147;28;20203;-69
2024/01/27 07:14:59;;;;;;;9.93;4.83;;;;;;;;;;5066672;28;20282;-69
2024/01/27 07:17:28;;;;;;;9.33;4.83;;;;;;;;;;5066767;28;20210;-69
2024/01/27 07:19:55;;;;;;;9.13;4.30;;;;;;;;;;5065615;28;20192;-69
2024/01/27 07:22:22;;;;;;;11.30;4.70;;;;;;;;;;5067505;28;20201;-68
2024/01/27 07:24:51;;;;;;;5.77;3.53;;;;;;;;;;5062673;28;20209;-67
2024/01/27 07:27:18;;;;;;;9.53;3.60;;;;;;;;;;5062867;28;20203;-68
2024/01/27 07:29:46;;;;;;;8.90;3.77;;;;;;;;;;5059088;28;20234;-69
2024/01/27 07:32:14;;;;;;;8.67;3.73;;;;;;;;;;5060734;28;20241;-69
2024/01/27 07:34:43;;;;;;;7.93;3.67;;;;;;;;;;5063855;28;20235;-69
2024/01/27 07:37:10;;;;;;;8.03;3.40;;;;;;;;;;5068414;28;20211;-68
2024/01/27 07:39:38;;;;;;;5.13;3.40;;;;;;;;;;5059055;28;20203;-69
2024/01/27 07:42:05;;;;;;;8.60;3.53;;;;;;;;;;5058395;28;20254;-69
2024/01/27 07:44:32;;;;;;;8.00;3.70;;;;;;;;;;5061099;28;20201;-69
2024/01/27 07:46:59;;;;;;;6.17;4.20;;;;;;;;;;5058621;28;20237;-69
2024/01/27 07:49:27;;;;;;;7.20;4.70;;;;;;;;;;5061469;28;20224;-69
2024/01/27 07:51:56;;;;;;;8.37;4.93;;;;;;;;;;5061561;28;20203;-69
2024/01/27 07:54:23;;;;;;;13.47;4.60;;;;;;;;;;5061952;28;20230;-69
2024/01/27 07:56:50;;;;;;;9.50;4.40;;;;;;;;;;5062855;28;20198;-69
2024/01/27 07:59:18;;;;;;;7.80;5.17;;;;;;;;;;5057445;28;20223;-69
2024/01/27 08:01:45;;;;;;;11.40;7.23;;;;;;;;;;5063995;28;20270;-69
2024/01/27 08:04:12;;;;;;;12.17;6.73;;;;;;;;;;5061296;28;20206;-69
2024/01/27 08:06:48;;;;;;;9.13;6.10;;;;;;;;;;5060277;28;20202;-68
2024/01/27 08:09:16;;;;;;;10.60;4.87;;;;;;;;;;5059931;28;20203;-69
2024/01/27 08:11:43;;;;;;;7.50;4.20;;;;;;;;;;5062937;28;20202;-69
2024/01/27 08:14:11;;;;;;;5.90;4.13;;;;;;;;;;5062176;28;20276;-69
2024/01/27 08:16:38;;;;;;;16.03;6.27;;;;;;;;;;5062531;28;20205;-70
2024/01/27 08:19:05;;;;;;;18.73;9.83;;;;;;;;;;5062731;28;20214;-69
2024/01/27 08:21:32;;;;;;;18.37;9.60;;;;;;;;;;5055028;28;20199;-69
2024/01/27 08:24:00;;;;;;;18.87;11.17;;;;;;;;;;5061033;28;20213;-68
2024/01/27 08:26:28;;;;;;;13.00;8.90;;;;;;;;;;5063621;28;20293;-69
2024/01/27 08:28:56;;;;;;;21.40;8.30;;;;;;;;;;5060719;28;20200;-69
2024/01/27 08:31:23;;;;;;;15.23;8.60;;;;;;;;;;5061754;28;20215;-69
2024/01/27 08:33:51;;;;;;;11.40;6.80;;;;;;;;;;5060451;28;20210;-69
2024/01/27 08:36:18;;;;;;;14.27;6.60;;;;;;;;;;5058967;28;20204;-69
2024/01/27 08:38:45;;;;;;;14.73;6.80;;;;;;;;;;5058613;28;20281;-69
2024/01/27 08:41:12;;;;;;;14.20;6.67;;;;;;;;;;5060162;28;20203;-69
2024/01/27 08:43:41;;;;;;;9.60;6.67;;;;;;;;;;5057247;28;20405;-69
2024/01/27 08:46:11;;;;;;;10.67;6.27;;;;;;;;;;5057476;28;20204;-69
2024/01/27 08:48:38;;;;;;;8.27;5.40;;;;;;;;;;5057151;28;20210;-67
2024/01/27 08:51:05;;;;;;;10.07;5.57;;;;;;;;;;5049436;28;20211;-68
2024/01/27 08:53:33;;;;;;;9.33;4.93;;;;;;;;;;5046781;28;20222;-69
2024/01/27 08:56:00;;;;;;;10.40;5.43;;;;;;;;;;5049078;28;20209;-67
2024/01/27 08:58:27;;;;;;;7.37;5.43;;;;;;;;;;5063664;28;20206;-69
2024/01/27 09:00:55;;;;;;;7.90;5.10;;;;;;;;;;5056655;28;20302;-69
2024/01/27 09:03:22;;;;;;;8.43;5.20;;;;;;;;;;5061874;28;20191;-69
2024/01/27 09:05:50;;;;;;;9.40;5.97;;;;;;;;;;5058078;28;20202;-69
2024/01/27 09:08:17;;;;;;;9.13;6.43;;;;;;;;;;5064208;28;20222;-69
2024/01/27 09:10:45;;;;;;;8.53;5.50;;;;;;;;;;5060410;28;20214;-69
2024/01/27 09:13:12;;;;;;;8.13;5.53;;;;;;;;;;5061000;28;20206;-69
2024/01/27 09:15:39;;;;;;;7.97;5.47;;;;;;;;;;5049967;28;20222;-68
2024/01/27 09:18:08;;;;;;;9.67;6.20;;;;;;;;;;5053030;28;20225;-69
2024/01/27 09:20:35;;;;;;;11.47;7.43;;;;;;;;;;5046722;28;20840;-69
2024/01/27 09:23:02;;;;;;;11.43;7.37;;;;;;;;;;5046172;28;20207;-68
2024/01/27 09:25:31;;;;;;;12.97;7.93;;;;;;;;;;5053955;28;20195;-69
2024/01/27 09:28:00;;;;;;;13.40;7.53;;;;;;;;;;5060883;28;20200;-68
2024/01/27 09:30:27;;;;;;;9.87;6.57;;;;;;;;;;5061588;28;20218;-69
2024/01/27 09:32:55;;;;;;;11.13;7.10;;;;;;;;;;5055973;28;20203;-68
2024/01/27 09:35:24;;;;;;;12.47;7.43;;;;;;;;;;5061710;28;20242;-69
2024/01/27 09:37:51;;;;;;;12.60;7.73;;;;;;;;;;5057183;28;20206;-69
2024/01/27 09:40:19;;;;;;;9.30;6.30;;;;;;;;;;5057651;28;20203;-68
2024/01/27 09:42:51;;;;;;;10.07;6.00;;;;;;;;;;5061257;28;20222;-69
2024/01/27 09:45:19;;;;;;;7.77;5.67;;;;;;;;;;5062434;28;20207;-68
2024/01/27 09:47:47;;;;;;;8.93;5.63;;;;;;;;;;5059430;28;20213;-69
2024/01/27 09:50:16;;;;;;;8.97;5.10;;;;;;;;;;5055977;28;20219;-69
2024/01/27 09:52:46;;;;;;;10.50;4.80;;;;;;;;;;5061756;28;20199;-69
2024/01/27 09:55:13;;;;;;;10.20;3.90;;;;;;;;;;5057067;28;20338;-69
2024/01/27 09:57:41;;;;;;;10.40;3.27;;;;;;;;;;5055069;28;20204;-69
2024/01/27 10:00:11;;;;;;;11.77;3.63;;;;;;;;;;5044006;28;20261;-64
2024/01/27 10:02:40;;;;;;;7.03;3.30;;;;;;;;;;5046854;28;20213;-63
2024/01/27 10:05:09;;;;;;;11.33;3.67;;;;;;;;;;5047759;28;20207;-62
2024/01/27 10:07:36;;;;;;;12.27;3.50;;;;;;;;;;5047058;28;20199;-64
2024/01/27 10:10:05;;;;;;;12.97;8.57;;;;;;;;;;5043538;28;20215;-64
2024/01/27 10:12:33;;;;;;;24.80;13.20;;;;;;;;;;5045423;28;20206;-63
2024/01/27 10:15:00;;;;;;;12.17;8.23;;;;;;;;;;5051022;28;20221;-63
2024/01/27 10:17:32;;;;;;;13.70;8.70;;;;;;;;;;5051876;28;20198;-64
2024/01/27 10:20:04;;;;;;;13.13;8.03;;;;;;;;;;5062940;28;20263;-63
2024/01/27 10:22:38;;;;;;;9.33;4.93;;;;;;;;;;5049444;28;20300;-63
2024/01/27 10:25:08;;;;;;;10.73;4.17;;;;;;;;;;5050258;28;20191;-63
2024/01/27 10:27:35;;;;;;;5.67;3.80;;;;;;;;;;5053855;28;20198;-64
2024/01/27 10:30:02;;;;;;;7.50;4.37;;;;;;;;;;5061744;28;20198;-62
2024/01/27 10:32:30;;;;;;;7.37;4.00;;;;;;;;;;5058301;28;21257;-62
2024/01/27 10:35:04;;;;;;;8.13;4.53;;;;;;;;;;5064296;28;20286;-63
2024/01/27 10:37:31;;;;;;;7.40;5.10;;;;;;;;;;5060636;28;20202;-62
2024/01/27 10:40:01;;;;;;;6.37;4.50;;;;;;;;;;5060021;28;20272;-63
2024/01/27 10:42:31;;;;;;;11.20;5.40;;;;;;;;;;5065441;28;20196;-62
2024/01/27 10:44:59;;;;;;;6.17;3.60;;;;;;;;;;5059805;28;20203;-63
2024/01/27 10:47:29;;;;;;;6.20;3.20;;;;;;;;;;5053055;28;20203;-62
2024/01/27 10:49:57;;;;;;;7.77;3.80;;;;;;;;;;5053731;28;20214;-63
2024/01/27 10:52:28;;;;;;;14.97;7.80;;;;;;;;;;5049918;28;20199;-64
2024/01/27 10:54:56;;;;;;;10.20;5.40;;;;;;;;;;5063434;28;20199;-63
2024/01/27 10:57:24;;;;;;;11.23;4.90;;;;;;;;;;5062187;28;20199;-63
2024/01/27 10:59:54;;;;;;;10.87;6.03;;;;;;;;;;5065431;28;20194;-63
2024/01/27 11:02:22;;;;;;;9.90;4.80;;;;;;;;;;5063732;28;20245;-62
2024/01/27 11:04:50;;;;;;;9.43;3.80;;;;;;;;;;5063767;28;20225;-62
2024/01/27 11:07:18;;;;;;;7.27;4.00;;;;;;;;;;5060436;28;20226;-62
2024/01/27 11:09:45;;;;;;;6.17;3.63;;;;;;;;;;5060427;28;20195;-62
2024/01/27 11:12:13;;;;;;;6.60;3.17;;;;;;;;;;5060172;28;20215;-62
2024/01/27 11:14:40;;;;;;;6.57;3.97;;;;;;;;;;5067434;28;20195;-63
2024/01/27 11:17:08;;;;;;;9.23;4.40;;;;;;;;;;5066141;28;20270;-62
2024/01/27 11:19:35;;;;;;;9.73;4.50;;;;;;;;;;5060249;28;20202;-63
2024/01/27 11:22:02;;;;;;;12.13;4.93;;;;;;;;;;5065684;28;20210;-62
2024/01/27 11:24:29;;;;;;;11.70;5.77;;;;;;;;;;5057504;28;20285;-62
2024/01/27 11:27:02;;;;;;;10.93;6.10;;;;;;;;;;5050646;28;21974;-62
2024/01/27 11:29:29;;;;;;;8.40;5.03;;;;;;;;;;5049146;28;20226;-64
2024/01/27 11:31:57;;;;;;;8.87;4.73;;;;;;;;;;5051770;28;20252;-62
2024/01/27 11:34:26;;;;;;;8.50;5.10;;;;;;;;;;5052610;28;20206;-63
2024/01/27 11:36:54;;;;;;;15.00;10.07;;;;;;;;;;5032088;28;20204;-63
2024/01/27 11:39:28;;;;;;;13.50;10.07;;;;;;;;;;5032051;28;20210;-62
2024/01/27 11:42:05;;;;;;;10.87;5.97;;;;;;;;;;5050850;28;20218;-63
2024/01/27 11:44:32;;;;;;;9.10;5.33;;;;;;;;;;5066019;28;20205;-62
2024/01/27 11:47:00;;;;;;;10.77;4.80;;;;;;;;;;5064345;28;20652;-62
2024/01/27 11:49:29;;;;;;;9.30;4.13;;;;;;;;;;5058938;28;20211;-62
2024/01/27 11:51:56;;;;;;;7.80;4.03;;;;;;;;;;5058871;28;20211;-62
2024/01/27 11:54:23;;;;;;;5.33;2.97;;;;;;;;;;5065163;28;20264;-62
2024/01/27 11:56:50;;;;;;;7.13;3.23;;;;;;;;;;5060923;28;20196;-63
2024/01/27 11:59:18;;;;;;;8.17;3.70;;;;;;;;;;5050911;28;20209;-63
2024/01/27 12:01:45;;;;;;;6.33;4.23;;;;;;;;;;5046582;28;20304;-62
2024/01/27 12:04:14;;;;;;;8.00;3.93;;;;;;;;;;5048383;28;20198;-64
2024/01/27 12:06:45;;;;;;;6.47;3.43;;;;;;;;;;5045571;28;20199;-65
2024/01/27 12:09:13;;;;;;;7.87;2.70;;;;;;;;;;5048620;28;20199;-62
2024/01/27 12:11:41;;;;;;;8.60;2.40;;;;;;;;;;5049233;28;20314;-62
2024/01/27 12:14:08;;;;;;;6.00;2.03;;;;;;;;;;5049803;28;20202;-62
2024/01/27 12:16:35;;;;;;;5.50;2.33;;;;;;;;;;5054747;28;20204;-62
2024/01/27 12:19:03;;;;;;;6.47;2.30;;;;;;;;;;5054792;28;20191;-67
2024/01/27 12:21:30;;;;;;;5.13;2.23;;;;;;;;;;5053152;28;20203;-67
2024/01/27 12:23:59;;;;;;;4.27;1.63;;;;;;;;;;5048647;28;20214;-67
2024/01/27 12:26:27;;;;;;;8.13;2.57;;;;;;;;;;5055085;28;20196;-67
2024/01/27 12:28:57;;;;;;;4.47;2.27;;;;;;;;;;5054612;28;20213;-66
2024/01/27 12:31:25;;;;;;;6.47;2.27;;;;;;;;;;5049031;28;20209;-67
2024/01/27 12:33:52;;;;;;;7.03;2.33;;;;;;;;;;5049270;28;20203;-67
2024/01/27 12:36:20;;;;;;;5.97;2.23;;;;;;;;;;5047285;28;20208;-67
2024/01/27 12:38:48;;;;;;;5.97;2.00;;;;;;;;;;5048149;28;20238;-67
2024/01/27 12:41:17;;;;;;;8.97;2.43;;;;;;;;;;5052643;28;20195;-66
2024/01/27 12:43:44;;;;;;;7.07;1.80;;;;;;;;;;5048826;28;20203;-68
2024/01/27 12:46:12;;;;;;;7.37;1.70;;;;;;;;;;5058833;28;20199;-67
2024/01/27 12:48:39;;;;;;;6.97;3.60;;;;;;;;;;5058855;28;20213;-67
2024/01/27 12:51:06;;;;;;;7.57;2.83;;;;;;;;;;5062581;28;20318;-67
2024/01/27 12:53:34;;;;;;;9.60;3.43;;;;;;;;;;5058442;28;20300;-67
2024/01/27 12:56:01;;;;;;;8.60;2.80;;;;;;;;;;5064050;28;20221;-67
2024/01/27 12:58:29;;;;;;;7.73;3.40;;;;;;;;;;5061274;28;20262;-67
2024/01/27 13:00:56;;;;;;;9.57;2.97;;;;;;;;;;5060657;28;20321;-67
2024/01/27 13:03:24;;;;;;;8.67;2.63;;;;;;;;;;5061189;28;20253;-67
2024/01/27 13:05:51;;;;;;;7.93;4.47;;;;;;;;;;5060701;28;20294;-67
2024/01/27 13:08:18;;;;;;;5.90;2.77;;;;;;;;;;5057285;28;20205;-68
2024/01/27 13:10:45;;;;;;;8.97;3.27;;;;;;;;;;5063968;28;20205;-67
2024/01/27 13:13:12;;;;;;;7.73;2.90;;;;;;;;;;5061067;28;20282;-67
2024/01/27 13:15:41;;;;;;;8.37;3.80;;;;;;;;;;5048586;28;20199;-67
2024/01/27 13:18:08;;;;;;;5.97;2.33;;;;;;;;;;5048629;28;20252;-66
2024/01/27 13:20:35;;;;;;;8.17;2.70;;;;;;;;;;5056627;28;20210;-66
2024/01/27 13:23:03;;;;;;;4.70;2.30;;;;;;;;;;5054565;28;20286;-66
2024/01/27 13:25:30;;;;;;;6.07;2.30;;;;;;;;;;5065365;28;20195;-67
2024/01/27 13:27:57;;;;;;;6.73;2.73;;;;;;;;;;5061181;28;20290;-66
2024/01/27 13:30:25;;;;;;;5.63;2.07;;;;;;;;;;5060350;28;20233;-63
2024/01/27 13:32:53;;;;;;;7.70;3.57;;;;;;;;;;5068161;28;20211;-64
2024/01/27 13:35:21;;;;;;;9.33;3.33;;;;;;;;;;5064641;28;20207;-65
2024/01/27 13:37:48;;;;;;;11.33;3.20;;;;;;;;;;5064481;28;20203;-65
2024/01/27 13:40:15;;;;;;;7.27;2.97;;;;;;;;;;5063051;28;20207;-64
2024/01/27 13:42:42;;;;;;;10.73;4.20;;;;;;;;;;5065440;28;20218;-64
2024/01/27 13:45:10;;;;;;;7.07;2.77;;;;;;;;;;5063349;28;20202;-64
2024/01/27 13:47:38;;;;;;;8.20;3.10;;;;;;;;;;5065279;28;20224;-63
2024/01/27 13:50:07;;;;;;;7.47;3.57;;;;;;;;;;5063676;28;20203;-64
2024/01/27 13:52:34;;;;;;;10.10;4.20;;;;;;;;;;5068813;28;20222;-64
2024/01/27 13:55:01;;;;;;;8.53;3.97;;;;;;;;;;5065806;28;20305;-64
2024/01/27 13:57:28;;;;;;;6.37;3.97;;;;;;;;;;5063798;28;20199;-64
2024/01/27 13:59:56;;;;;;;11.30;5.50;;;;;;;;;;5062704;28;20203;-64
2024/01/27 14:02:23;;;;;;;12.17;6.50;;;;;;;;;;5064943;28;20231;-64
2024/01/27 14:04:52;;;;;;;14.90;7.03;;;;;;;;;;5063831;28;20206;-64
2024/01/27 14:07:20;;;;;;;13.87;6.80;;;;;;;;;;5067376;28;20195;-64
2024/01/27 14:09:48;;;;;;;10.63;5.50;;;;;;;;;;5064402;28;20198;-63
2024/01/27 14:12:15;;;;;;;12.93;6.50;;;;;;;;;;5065081;28;20217;-64
2024/01/27 14:14:42;;;;;;;8.93;4.80;;;;;;;;;;5057138;28;20218;-64
2024/01/27 14:17:09;;;;;;;11.23;5.43;;;;;;;;;;5062393;28;20264;-64
2024/01/27 14:19:37;;;;;;;8.37;4.53;;;;;;;;;;5061637;28;20266;-64
2024/01/27 14:22:06;;;;;;;8.00;4.13;;;;;;;;;;5060086;28;20195;-63
2024/01/27 14:24:34;;;;;;;11.77;6.73;;;;;;;;;;5051302;28;20202;-62
2024/01/27 14:27:01;;;;;;;21.20;10.40;;;;;;;;;;5054309;28;20199;-63
2024/01/27 14:29:28;;;;;;;14.27;7.50;;;;;;;;;;5052086;28;20206;-62
2024/01/27 14:31:56;;;;;;;6.90;4.63;;;;;;;;;;5056577;28;20233;-62
2024/01/27 14:34:23;;;;;;;8.43;4.90;;;;;;;;;;5062821;28;20195;-63
2024/01/27 14:36:50;;;;;;;8.57;5.33;;;;;;;;;;5065299;28;20302;-63
2024/01/27 14:39:17;;;;;;;13.33;7.37;;;;;;;;;;5065355;28;20194;-62
2024/01/27 14:41:46;;;;;;;12.87;6.93;;;;;;;;;;5062022;28;20283;-62
2024/01/27 14:44:13;;;;;;;9.67;7.13;;;;;;;;;;5056799;28;20203;-63